createdAt,value
2023-05-10T00:00:19.904Z,99212.03
2023-05-10T00:03:23.919Z,99212.53
2023-05-10T00:06:27.988Z,99204.91
2023-05-10T00:09:32.953Z,99202.34
2023-05-10T00:12:36.390Z,99206.28
2023-05-10T00:15:39.759Z,99212.25
2023-05-10T00:18:43.363Z,99213.53
2023-05-10T00:21:46.954Z,99211.09
2023-05-10T00:24:51.800Z,99207.84
2023-05-10T00:27:56.276Z,99199.56
2023-05-10T00:31:00.017Z,99196.50
2023-05-10T00:34:03.814Z,99194.69
2023-05-10T00:37:07.788Z,99195.88
2023-05-10T00:40:14.027Z,99192.13
2023-05-10T00:43:20.227Z,99192.28
2023-05-10T00:46:25.571Z,99195.91
2023-05-10T00:49:30.872Z,99188.38
2023-05-10T00:52:34.621Z,99182.06
2023-05-10T00:55:39.901Z,99189.78
2023-05-10T00:58:44.095Z,99181.22
2023-05-10T01:01:48.957Z,99184.56
2023-05-10T01:04:56.592Z,99180.03
2023-05-10T01:08:01.016Z,99174.94
2023-05-10T01:11:06.498Z,99175.50
2023-05-10T01:14:11.849Z,99177.69
2023-05-10T01:17:16.474Z,99173.88
2023-05-10T01:20:20.364Z,99168.50
2023-05-10T01:23:46.360Z,99162.91
2023-05-10T01:27:17.065Z,99164.28
2023-05-10T01:30:58.221Z,99164.25
2023-05-10T01:34:11.897Z,99172.25
2023-05-10T01:37:22.772Z,99163.47
2023-05-10T01:40:32.943Z,99165.41
2023-05-10T01:43:45.336Z,99165.59
2023-05-10T01:46:55.684Z,99173.16
2023-05-10T01:50:05.449Z,99163.66
2023-05-10T01:53:12.208Z,99165.03
2023-05-10T01:56:17.863Z,99165.31
2023-05-10T01:59:23.985Z,99157.84
2023-05-10T02:02:29.985Z,99163.38
2023-05-10T02:05:37.125Z,99155.94
2023-05-10T02:08:42.571Z,99152.41
2023-05-10T02:11:46.753Z,99154.00
2023-05-10T02:14:50.410Z,99146.28
2023-05-10T02:17:57.108Z,99149.25
2023-05-10T02:21:03.743Z,99157.41
2023-05-10T02:24:11.097Z,99152.81
2023-05-10T02:27:16.683Z,99152.19
2023-05-10T02:30:21.582Z,99146.69
2023-05-10T02:33:27.402Z,99147.44
2023-05-10T02:36:33.258Z,99148.69
2023-05-10T02:39:37.630Z,99146.88
2023-05-10T02:42:44.712Z,99151.28
2023-05-10T02:45:50.472Z,99149.78
2023-05-10T02:48:54.228Z,99147.53
2023-05-10T02:52:03.368Z,99143.94
2023-05-10T02:55:09.272Z,99141.47
2023-05-10T02:58:13.903Z,99149.16
2023-05-10T03:01:17.624Z,99148.75
2023-05-10T03:04:21.736Z,99154.34
2023-05-10T03:07:27.085Z,99150.94
2023-05-10T03:10:33.476Z,99146.22
2023-05-10T03:13:46.416Z,99149.19
2023-05-10T03:17:02.831Z,99148.47
2023-05-10T03:20:11.460Z,99150.94
2023-05-10T03:23:28.626Z,99145.75
2023-05-10T03:26:32.973Z,99147.66
2023-05-10T03:29:46.276Z,99157.53
2023-05-10T03:32:50.468Z,99151.88
2023-05-10T03:35:54.974Z,99147.34
2023-05-10T03:38:59.992Z,99140.84
2023-05-10T03:42:04.075Z,99132.00
2023-05-10T03:45:09.506Z,99132.06
2023-05-10T03:48:14.833Z,99124.69
2023-05-10T03:51:19.818Z,99130.75
2023-05-10T03:54:24.818Z,99134.50
2023-05-10T03:57:28.512Z,99129.75
2023-05-10T04:00:33.199Z,99133.84
2023-05-10T04:03:38.039Z,99135.25
2023-05-10T04:06:42.651Z,99130.88
2023-05-10T04:09:47.493Z,99131.50
2023-05-10T04:12:50.962Z,99132.81
2023-05-10T04:15:54.713Z,99131.75
2023-05-10T04:18:58.571Z,99135.50
2023-05-10T04:22:02.247Z,99130.50
2023-05-10T04:25:09.020Z,99129.22
2023-05-10T04:28:12.902Z,99132.41
2023-05-10T04:31:16.331Z,99134.78
2023-05-10T04:34:19.872Z,99132.66
2023-05-10T04:37:24.105Z,99137.44
2023-05-10T04:40:29.187Z,99142.56
2023-05-10T04:43:32.621Z,99132.22
2023-05-10T04:46:36.337Z,99140.25
2023-05-10T04:49:39.800Z,99131.91
2023-05-10T04:52:43.381Z,99137.25
2023-05-10T04:55:49.180Z,99130.50
2023-05-10T04:58:52.823Z,99131.81
2023-05-10T05:01:56.470Z,99129.50
2023-05-10T05:05:00.393Z,99133.53
2023-05-10T05:08:04.463Z,99128.94
2023-05-10T05:11:09.390Z,99126.31
2023-05-10T05:14:13.037Z,99126.31
2023-05-10T05:17:16.646Z,99122.03
2023-05-10T05:20:20.145Z,99129.47
2023-05-10T05:23:25.875Z,99132.38
2023-05-10T05:26:31.040Z,99130.72
2023-05-10T05:29:34.993Z,99132.72
2023-05-10T05:32:38.526Z,99141.59
2023-05-10T05:35:42.375Z,99140.13
2023-05-10T05:38:46.158Z,99131.75
2023-05-10T05:41:51.079Z,99136.25
2023-05-10T05:44:54.745Z,99141.41
2023-05-10T05:47:58.266Z,99135.22
2023-05-10T05:51:01.793Z,99141.41
2023-05-10T05:54:05.773Z,99137.78
2023-05-10T05:57:11.303Z,99142.22
2023-05-10T06:00:15.861Z,99140.50
2023-05-10T06:03:19.296Z,99136.47
2023-05-10T06:06:23.076Z,99134.34
2023-05-10T06:09:26.465Z,99138.72
2023-05-10T06:12:31.287Z,99137.59
2023-05-10T06:15:34.864Z,99137.22
2023-05-10T06:18:38.822Z,99132.72
2023-05-10T06:21:42.300Z,99128.44
2023-05-10T06:24:45.779Z,99134.66
2023-05-10T06:27:53.754Z,99134.66
2023-05-10T06:30:57.435Z,99131.22
2023-05-10T06:34:00.932Z,99125.53
2023-05-10T06:37:04.623Z,99130.53
2023-05-10T06:40:10.463Z,99121.44
2023-05-10T06:43:15.385Z,99126.22
2023-05-10T06:46:18.929Z,99126.00
2023-05-10T06:49:22.693Z,99131.84
2023-05-10T06:52:26.190Z,99131.84
2023-05-10T06:55:30.344Z,99124.28
2023-05-10T06:58:35.216Z,99128.09
2023-05-10T07:01:38.907Z,99118.53
2023-05-10T07:04:42.615Z,99113.09
2023-05-10T07:07:45.982Z,99113.53
2023-05-10T07:10:49.602Z,99112.25
2023-05-10T07:13:54.619Z,99114.41
2023-05-10T07:16:58.084Z,99111.28
2023-05-10T07:20:02.669Z,99117.44
2023-05-10T07:23:06.138Z,99123.16
2023-05-10T07:26:10.621Z,99121.16
2023-05-10T07:29:15.514Z,99114.34
2023-05-10T07:32:19.182Z,99111.59
2023-05-10T07:35:23.323Z,99106.09
2023-05-10T07:38:26.839Z,99111.34
2023-05-10T07:41:31.083Z,99101.72
2023-05-10T07:44:35.846Z,99100.63
2023-05-10T07:47:39.300Z,99103.13
2023-05-10T07:50:42.783Z,99101.31
2023-05-10T07:53:47.326Z,99099.28
2023-05-10T07:56:50.913Z,99096.13
2023-05-10T07:59:56.027Z,99096.34
2023-05-10T08:02:59.900Z,99096.56
2023-05-10T08:06:03.475Z,99093.34
2023-05-10T08:09:07.038Z,99089.81
2023-05-10T08:12:10.530Z,99101.72
2023-05-10T08:15:15.709Z,99093.31
2023-05-10T08:18:21.787Z,99089.50
2023-05-10T08:21:25.611Z,99097.13
2023-05-10T08:24:29.111Z,99089.34
2023-05-10T08:27:32.572Z,99089.72
2023-05-10T08:30:37.318Z,99087.44
2023-05-10T08:33:42.137Z,99085.53
2023-05-10T08:36:46.832Z,99091.72
2023-05-10T08:39:50.456Z,99093.19
2023-05-10T08:43:00.698Z,99096.91
2023-05-10T08:46:07.863Z,99084.94
2023-05-10T08:49:13.605Z,99090.38
2023-05-10T08:52:19.712Z,99083.59
2023-05-10T08:55:24.448Z,99087.69
2023-05-10T08:58:28.056Z,99100.22
2023-05-10T09:01:34.153Z,99085.38
2023-05-10T09:04:38.155Z,99087.63
2023-05-10T09:07:41.687Z,99087.53
2023-05-10T09:10:48.273Z,99085.94
2023-05-10T09:13:53.523Z,99090.47
2023-05-10T09:16:59.095Z,99087.81
2023-05-10T09:20:05.246Z,99087.16
2023-05-10T09:23:08.857Z,99084.44
2023-05-10T09:26:12.776Z,99092.13
2023-05-10T09:29:17.685Z,99083.31
2023-05-10T09:32:23.057Z,99085.75
2023-05-10T09:35:29.609Z,99078.91
2023-05-10T09:38:48.096Z,99081.06
2023-05-10T09:41:51.888Z,99094.81
2023-05-10T09:44:55.431Z,99092.16
2023-05-10T09:48:02.866Z,99095.72
2023-05-10T09:51:06.699Z,99089.53
2023-05-10T09:54:14.483Z,99093.31
2023-05-10T09:57:23.183Z,99091.66
2023-05-10T10:00:26.571Z,99086.16
2023-05-10T10:03:32.284Z,99081.91
2023-05-10T10:06:39.976Z,99083.28
2023-05-10T10:09:43.521Z,99075.03
2023-05-10T10:12:47.137Z,99069.63
2023-05-10T10:15:52.423Z,99084.81
2023-05-10T10:18:58.064Z,99077.53
2023-05-10T10:22:02.930Z,99064.81
2023-05-10T10:25:07.729Z,99063.44
2023-05-10T10:28:28.240Z,99055.03
2023-05-10T10:31:41.428Z,99063.69
2023-05-10T10:34:46.856Z,99065.09
2023-05-10T10:37:53.100Z,99054.53
2023-05-10T10:41:05.057Z,99056.53
2023-05-10T10:44:30.440Z,99061.56
2023-05-10T10:47:34.552Z,99055.66
2023-05-10T10:50:47.920Z,99056.28
2023-05-10T10:53:51.420Z,99053.88
2023-05-10T10:57:13.257Z,99050.91
2023-05-10T11:00:31.977Z,99055.00
2023-05-10T11:03:35.852Z,99048.13
2023-05-10T11:06:41.356Z,99050.63
2023-05-10T11:09:45.019Z,99051.66
2023-05-10T11:12:56.715Z,99051.69
2023-05-10T11:16:01.977Z,99048.06
2023-05-10T11:19:07.023Z,99049.03
2023-05-10T11:22:19.348Z,99048.34
2023-05-10T11:25:28.561Z,99047.78
2023-05-10T11:28:32.630Z,99040.97
2023-05-10T11:31:37.137Z,99048.06
2023-05-10T11:34:41.449Z,99034.59
2023-05-10T11:37:50.660Z,99041.66
2023-05-10T11:40:55.638Z,99035.78
2023-05-10T11:44:00.273Z,99026.31
2023-05-10T11:47:04.699Z,99040.84
2023-05-10T11:50:09.241Z,99040.53
2023-05-10T11:53:15.710Z,99029.22
2023-05-10T11:56:19.550Z,99038.63
2023-05-10T11:59:22.922Z,99032.50
2023-05-10T12:02:26.837Z,99033.06
2023-05-10T12:05:30.664Z,99024.13
2023-05-10T12:08:35.837Z,99031.28
2023-05-10T12:11:43.881Z,99030.97
2023-05-10T12:14:52.722Z,99030.25
2023-05-10T12:17:56.311Z,99028.31
2023-05-10T12:21:06.527Z,99033.09
2023-05-10T12:24:11.930Z,99032.84
2023-05-10T12:27:15.865Z,99029.47
2023-05-10T12:30:24.279Z,99027.88
2023-05-10T12:33:27.805Z,99036.25
2023-05-10T12:36:31.370Z,99024.72
2023-05-10T12:39:47.238Z,99027.09
2023-05-10T12:42:50.915Z,99021.03
2023-05-10T12:45:54.522Z,99015.66
2023-05-10T12:49:07.742Z,99024.16
2023-05-10T12:52:12.518Z,99019.59
2023-05-10T12:55:17.799Z,99015.69
2023-05-10T13:01:31.377Z,99006.72
2023-05-10T13:04:34.837Z,99020.94
2023-05-10T13:07:38.316Z,99012.81
2023-05-10T13:10:43.237Z,99005.56
2023-05-10T13:13:47.171Z,99004.09
2023-05-10T13:16:50.800Z,99003.88
2023-05-10T13:19:54.517Z,99002.22
2023-05-10T13:22:57.990Z,98991.41
2023-05-10T13:26:03.106Z,98995.31
2023-05-10T13:29:06.694Z,98994.06
2023-05-10T13:32:10.300Z,98985.41
2023-05-10T13:35:14.033Z,98996.97
2023-05-10T13:38:17.456Z,98984.16
2023-05-10T13:41:22.370Z,98979.59
2023-05-10T13:44:26.261Z,98977.31
2023-05-10T13:47:30.040Z,98973.19
2023-05-10T13:50:33.855Z,98981.81
2023-05-10T13:53:37.582Z,98973.88
2023-05-10T13:56:45.133Z,98965.25
2023-05-10T13:59:49.167Z,98969.84
2023-05-10T14:02:52.839Z,98970.16
2023-05-10T14:05:56.369Z,98965.50
2023-05-10T14:09:00.213Z,98961.63
2023-05-10T14:12:08.013Z,98959.31
2023-05-10T14:15:12.749Z,98961.22
2023-05-10T14:18:16.250Z,98951.47
2023-05-10T14:21:19.940Z,98953.66
2023-05-10T14:24:23.505Z,98957.44
2023-05-10T14:27:28.617Z,98954.44
2023-05-10T14:30:33.932Z,98948.19
2023-05-10T14:33:38.445Z,98957.09
2023-05-10T14:36:42.208Z,98946.09
2023-05-10T14:39:45.658Z,98948.09
2023-05-10T14:42:50.774Z,98938.53
2023-05-10T14:45:54.463Z,98942.59
2023-05-10T14:48:58.145Z,98942.06
2023-05-10T14:52:01.783Z,98942.66
2023-05-10T14:55:06.350Z,98943.88
2023-05-10T14:58:11.222Z,98936.13
2023-05-10T15:01:15.300Z,98941.63
2023-05-10T15:04:19.513Z,98942.59
2023-05-10T15:07:23.415Z,98947.56
2023-05-10T15:10:26.984Z,98938.19
2023-05-10T15:13:32.338Z,98947.63
2023-05-10T15:16:36.370Z,98945.13
2023-05-10T15:19:40.008Z,98948.38
2023-05-10T15:22:43.566Z,98944.56
2023-05-10T15:25:47.011Z,98944.22
2023-05-10T15:28:52.800Z,98946.56
2023-05-10T15:31:56.344Z,98945.69
2023-05-10T15:35:00.483Z,98935.03
2023-05-10T15:38:03.905Z,98946.84
2023-05-10T15:41:07.444Z,98938.47
2023-05-10T15:44:12.707Z,98948.66
2023-05-10T15:47:16.509Z,98945.72
2023-05-10T15:50:20.929Z,98934.50
2023-05-10T15:53:24.699Z,98942.94
2023-05-10T15:56:28.456Z,98942.06
2023-05-10T15:59:35.982Z,98943.81
2023-05-10T16:02:39.824Z,98936.28
2023-05-10T16:05:43.796Z,98936.03
2023-05-10T16:08:47.654Z,98934.25
2023-05-10T16:11:52.902Z,98944.84
2023-05-10T16:14:59.119Z,98942.81
2023-05-10T16:18:02.949Z,98947.41
2023-05-10T16:21:07.023Z,98943.66
2023-05-10T16:24:10.658Z,98942.22
2023-05-10T16:27:14.289Z,98946.47
2023-05-10T16:33:23.330Z,98950.44
2023-05-10T16:36:27.492Z,98952.78
2023-05-10T16:39:31.519Z,98945.00
2023-05-10T16:42:35.203Z,98953.78
2023-05-10T16:45:40.426Z,98954.16
2023-05-10T16:48:44.106Z,98952.69
2023-05-10T16:51:48.208Z,98950.63
2023-05-10T16:54:51.833Z,98955.84
2023-05-10T16:57:59.768Z,98961.00
2023-05-10T17:01:05.228Z,98958.69
2023-05-10T17:04:08.935Z,98962.00
2023-05-10T17:07:13.394Z,98958.50
2023-05-10T17:10:17.534Z,98956.44
2023-05-10T17:13:21.287Z,98965.78
2023-05-10T17:16:27.174Z,98958.88
2023-05-10T17:19:30.938Z,98961.03
2023-05-10T17:22:34.807Z,98973.13
2023-05-10T17:25:38.601Z,98967.16
2023-05-10T17:28:42.267Z,98973.19
2023-05-10T17:31:47.658Z,98973.03
2023-05-10T17:34:51.991Z,98977.53
2023-05-10T17:37:56.021Z,98976.34
2023-05-10T17:40:59.625Z,98986.53
2023-05-10T17:44:03.329Z,98988.13
2023-05-10T17:47:08.778Z,98982.78
2023-05-10T17:50:12.881Z,98992.16
2023-05-10T17:53:16.728Z,98985.81
2023-05-10T17:56:20.223Z,98992.19
2023-05-10T17:59:24.423Z,98995.56
2023-05-10T18:02:29.817Z,99000.25
2023-05-10T18:05:37.380Z,99004.22
2023-05-10T18:08:41.562Z,99012.69
2023-05-10T18:11:45.457Z,99013.91
2023-05-10T18:14:50.433Z,99014.59
2023-05-10T18:17:56.044Z,99022.34
2023-05-10T18:21:00.047Z,99015.13
2023-05-10T18:24:03.595Z,99018.38
2023-05-10T18:27:07.305Z,99021.72
2023-05-10T18:30:12.599Z,99019.88
2023-05-10T18:33:17.558Z,99032.41
2023-05-10T18:36:21.576Z,99030.97
2023-05-10T18:39:25.512Z,99040.56
2023-05-10T18:42:29.030Z,99042.63
2023-05-10T18:45:35.544Z,99045.84
2023-05-10T18:48:40.813Z,99047.34
2023-05-10T18:51:44.519Z,99049.13
2023-05-10T18:54:47.940Z,99058.06
2023-05-10T18:57:51.833Z,99061.72
2023-05-10T19:00:58.932Z,99068.53
2023-05-10T19:04:03.796Z,99065.47
2023-05-10T19:07:07.350Z,99067.97
2023-05-10T19:10:14.112Z,99073.19
2023-05-10T19:13:17.696Z,99070.69
2023-05-10T19:16:21.362Z,99075.09
2023-05-10T19:19:26.351Z,99078.25
2023-05-10T19:25:36.616Z,99083.41
2023-05-10T19:28:40.407Z,99080.03
2023-05-10T19:31:44.254Z,99080.53
2023-05-10T19:34:49.140Z,99083.06
2023-05-10T19:37:52.691Z,99083.41
2023-05-10T19:40:58.361Z,99090.38
2023-05-10T19:44:02.121Z,99084.41
2023-05-10T19:47:05.862Z,99084.41
2023-05-10T19:50:12.622Z,99082.56
2023-05-10T19:53:16.586Z,99086.34
2023-05-10T19:56:20.106Z,99089.16
2023-05-10T19:59:23.659Z,99087.69
2023-05-10T20:02:27.173Z,99099.00
2023-05-10T20:05:32.060Z,99095.00
2023-05-10T20:08:35.447Z,99094.28
2023-05-10T20:11:39.018Z,99091.28
2023-05-10T20:14:42.537Z,99096.34
2023-05-10T20:17:46.417Z,99094.53
2023-05-10T20:20:54.946Z,99092.47
2023-05-10T20:23:58.416Z,99096.16
2023-05-10T20:27:02.747Z,99093.50
2023-05-10T20:30:07.488Z,99102.25
2023-05-10T20:33:11.001Z,99105.84
2023-05-10T20:36:16.304Z,99102.47
2023-05-10T20:39:20.192Z,99093.63
2023-05-10T20:42:23.976Z,99096.53
2023-05-10T20:45:27.618Z,99101.63
2023-05-10T20:48:32.623Z,99103.78
2023-05-10T20:51:37.507Z,99101.75
2023-05-10T20:54:40.929Z,99102.91
2023-05-10T20:57:45.221Z,99101.31
2023-05-10T21:00:49.075Z,99099.41
2023-05-10T21:03:52.820Z,99102.16
2023-05-10T21:06:58.076Z,99105.25
2023-05-10T21:10:01.748Z,99101.63
2023-05-10T21:13:05.371Z,99105.63
2023-05-10T21:16:08.832Z,99103.75
2023-05-10T21:19:12.954Z,99107.47
2023-05-10T21:22:18.077Z,99105.03
2023-05-10T21:25:21.716Z,99108.16
2023-05-10T21:28:25.438Z,99102.84
2023-05-10T21:31:28.954Z,99106.00
2023-05-10T21:34:32.530Z,99109.69
2023-05-10T21:37:37.658Z,99110.78
2023-05-10T21:40:41.271Z,99111.34
2023-05-10T21:43:44.968Z,99112.44
2023-05-10T21:46:48.713Z,99112.69
2023-05-10T21:49:52.318Z,99112.00
2023-05-10T21:52:57.828Z,99114.75
2023-05-10T21:56:03.996Z,99116.44
2023-05-10T21:59:07.777Z,99105.66
2023-05-10T22:02:11.380Z,99114.56
2023-05-10T22:05:16.797Z,99112.69
2023-05-10T22:08:21.672Z,99113.94
2023-05-10T22:11:25.103Z,99119.81
2023-05-10T22:14:28.767Z,99121.72
2023-05-10T22:17:32.269Z,99119.69
2023-05-10T22:20:35.779Z,99124.50
2023-05-10T22:23:40.627Z,99126.50
2023-05-10T22:26:44.216Z,99125.66
2023-05-10T22:29:48.720Z,99134.56
2023-05-10T22:32:52.212Z,99129.81
2023-05-10T22:35:55.998Z,99129.56
2023-05-10T22:39:00.826Z,99136.97
2023-05-10T22:42:04.234Z,99128.16
2023-05-10T22:45:09.225Z,99138.44
2023-05-10T22:48:13.068Z,99142.56
2023-05-10T22:51:16.628Z,99139.47
2023-05-10T22:54:21.499Z,99134.53
2023-05-10T22:57:25.017Z,99143.28
2023-05-10T23:00:28.620Z,99141.66
2023-05-10T23:03:32.090Z,99143.13
2023-05-10T23:06:35.668Z,99138.47
2023-05-10T23:09:40.629Z,99144.38
2023-05-10T23:12:44.283Z,99146.63
2023-05-10T23:15:48.426Z,99146.16
2023-05-10T23:18:51.944Z,99144.25
2023-05-10T23:21:55.615Z,99143.84
2023-05-10T23:25:00.672Z,99147.13
2023-05-10T23:28:04.347Z,99143.97
2023-05-10T23:31:08.084Z,99139.56
2023-05-10T23:34:11.928Z,99140.97
2023-05-10T23:37:15.768Z,99143.97
2023-05-10T23:40:21.333Z,99138.44
2023-05-10T23:43:25.682Z,99132.78
2023-05-10T23:46:29.348Z,99131.06
2023-05-10T23:49:32.747Z,99137.84
2023-05-10T23:52:36.315Z,99138.03
2023-05-10T23:55:41.113Z,99138.84
2023-05-10T23:58:46.484Z,99140.81
